Time;durP1;ratioP1;P1;durP2;ratioP2;P2;SDS_P1;SDS_P2;PMS_P1;PMS_P2;Temp;Humidity;BMP_temperature;BMP_pressure;BME280_temperature;BME280_humidity;BME280_pressure;Samples;Min_cycle;Max_cycle;Signal;HPM_P1;HPM_P2
2022/07/25 00:02:00;;;;;;;5.20;3.47;;;;;;;23.96;61.59;100957.00;4995681;28;20386;-69
2022/07/25 00:04:25;;;;;;;7.13;3.80;;;;;;;24.01;61.50;100951.72;4995090;28;20029;-69
2022/07/25 00:06:51;;;;;;;5.10;3.85;;;;;;;23.93;61.68;100952.28;4994530;28;20370;-69
2022/07/25 00:09:16;;;;;;;10.45;3.88;;;;;;;23.97;61.22;100945.41;4995800;28;20034;-70
2022/07/25 00:11:42;;;;;;;6.72;3.95;;;;;;;23.92;61.33;100932.25;4994336;28;20045;-70
2022/07/25 00:14:07;;;;;;;7.53;3.80;;;;;;;23.93;61.37;100941.72;4995633;28;20057;-70
2022/07/25 00:16:32;;;;;;;6.35;3.65;;;;;;;;;;4994707;28;20027;-70
2022/07/25 00:18:58;;;;;;;7.82;4.10;;;;;;;23.84;61.62;100924.88;4995253;28;20085;-69
2022/07/25 00:21:23;;;;;;;5.07;3.60;;;;;;;23.91;61.74;100927.22;4995445;28;20026;-69
2022/07/25 00:23:49;;;;;;;8.85;4.43;;;;;;;23.86;61.42;100923.56;4993969;28;20030;-69
2022/07/25 00:26:15;;;;;;;5.53;3.80;;;;;;;23.85;61.53;100913.25;4995460;28;20097;-69
2022/07/25 00:28:41;;;;;;;6.85;3.83;;;;;;;23.76;61.80;100915.69;4994155;28;20026;-69
2022/07/25 00:31:07;;;;;;;8.50;4.00;;;;;;;23.75;61.88;100913.34;4995388;28;20018;-69
2022/07/25 00:33:32;;;;;;;4.65;3.83;;;;;;;23.84;61.49;100915.13;4995400;28;20022;-70
2022/07/25 00:35:58;;;;;;;6.10;3.80;;;;;;;23.83;61.40;100910.91;4993895;28;20027;-69
2022/07/25 00:38:23;;;;;;;10.35;4.15;;;;;;;23.82;61.17;100906.72;4995366;28;20076;-70
2022/07/25 00:40:48;;;;;;;7.45;4.10;;;;;;;23.82;61.36;100909.34;4995161;28;20466;-70
2022/07/25 00:43:13;;;;;;;9.70;3.92;;;;;;;23.83;61.77;100916.19;4993815;28;20062;-70
2022/07/25 00:45:39;;;;;;;5.63;3.60;;;;;;;23.60;63.17;100927.34;4995178;28;20026;-70
2022/07/25 00:48:06;;;;;;;6.75;4.03;;;;;;;23.53;63.31;100927.63;4994666;28;20022;-69
2022/07/25 00:50:31;;;;;;;7.05;4.18;;;;;;;23.43;64.18;100901.31;4994872;28;20018;-69
2022/07/25 00:52:57;;;;;;;9.27;4.13;;;;;;;23.48;63.43;100919.75;4995016;28;20455;-70
2022/07/25 00:55:24;;;;;;;6.55;4.00;;;;;;;23.39;64.43;100913.44;4995066;28;20113;-70
2022/07/25 00:57:49;;;;;;;6.80;4.38;;;;;;;23.39;64.20;100903.72;4994695;28;20033;-68
2022/07/25 01:00:16;;;;;;;7.60;4.15;;;;;;;23.40;64.63;100917.69;4993424;28;20517;-71
2022/07/25 01:02:42;;;;;;;12.10;4.20;;;;;;;23.33;64.78;100910.06;4994983;28;20034;-70
2022/07/25 01:05:08;;;;;;;9.05;4.50;;;;;;;23.25;65.46;100905.34;4993546;28;20018;-70
2022/07/25 01:07:35;;;;;;;6.45;4.20;;;;;;;23.32;64.99;100895.28;4994509;28;20430;-69
2022/07/25 01:10:01;;;;;;;6.25;4.10;;;;;;;23.17;66.01;100898.75;4993546;28;20517;-69
2022/07/25 01:12:26;;;;;;;6.22;4.10;;;;;;;23.13;66.59;100908.28;4994884;28;20057;-70
2022/07/25 01:14:52;;;;;;;8.90;4.40;;;;;;;22.94;67.21;100901.94;4993384;28;20026;-69
2022/07/25 01:17:17;;;;;;;8.90;4.35;;;;;;;23.01;67.22;100889.31;4994750;28;20073;-70
2022/07/25 01:19:42;;;;;;;10.95;4.30;;;;;;;22.92;67.67;100891.66;4994328;28;20446;-70
2022/07/25 01:22:08;;;;;;;8.60;4.60;;;;;;;22.92;68.20;100882.97;4993094;28;20112;-69
2022/07/25 01:24:34;;;;;;;8.38;4.40;;;;;;;22.94;68.34;100892.19;4994399;28;20023;-69
2022/07/25 01:27:00;;;;;;;6.05;4.00;;;;;;;22.94;68.50;100878.22;4993061;28;20029;-69
2022/07/25 01:29:25;;;;;;;6.07;3.75;;;;;;;22.59;69.71;100886.97;4993225;28;20034;-69
2022/07/25 01:31:50;;;;;;;9.15;3.83;;;;;;;22.61;70.16;100879.59;4994275;28;20125;-69
2022/07/25 01:34:16;;;;;;;7.30;4.13;;;;;;;22.59;69.82;100871.19;4993151;28;20056;-69
2022/07/25 01:36:41;;;;;;;6.60;4.38;;;;;;;22.68;69.91;100874.84;4994197;28;20026;-69
2022/07/25 01:39:06;;;;;;;8.10;4.07;;;;;;;22.69;69.74;100879.06;4994255;28;20033;-69
2022/07/25 01:41:32;;;;;;;7.53;4.47;;;;;;;22.37;71.23;100874.06;4992983;28;20417;-69
2022/07/25 01:43:57;;;;;;;5.75;4.28;;;;;;;22.48;71.22;100880.91;4994329;28;20023;-70
2022/07/25 01:46:22;;;;;;;7.53;4.28;;;;;;;22.51;71.18;100864.59;4994082;28;20030;-69
2022/07/25 01:48:47;;;;;;;4.97;4.10;;;;;;;22.50;71.25;100861.16;4994426;28;20109;-69
2022/07/25 01:51:13;;;;;;;9.43;4.35;;;;;;;22.53;71.68;100859.84;4994242;28;20030;-70
2022/07/25 01:53:38;;;;;;;6.00;4.70;;;;;;;22.46;71.82;100852.22;4992658;28;20382;-69
2022/07/25 01:56:04;;;;;;;7.72;4.13;;;;;;;22.55;71.81;100843.78;4992934;28;20057;-69
2022/07/25 01:58:30;;;;;;;6.15;4.20;;;;;;;22.58;71.58;100845.88;4992960;28;20033;-70
2022/07/25 02:00:55;;;;;;;8.30;4.63;;;;;;;22.67;70.96;100839.00;4994498;28;20026;-69
2022/07/25 02:03:29;;;;;;;7.13;4.28;;;;;;;22.66;70.54;100830.31;4997983;28;20470;-69
2022/07/25 02:06:01;;;;;;;8.55;4.85;;;;;;;22.70;70.33;100830.56;4998048;28;20473;-69
2022/07/25 02:08:28;;;;;;;10.68;4.80;;;;;;;22.72;70.22;100831.09;4997892;28;20030;-68
2022/07/25 02:10:53;;;;;;;7.93;4.57;;;;;;;22.68;70.36;100825.59;4997853;28;20080;-69
2022/07/25 02:13:19;;;;;;;8.32;4.60;;;;;;;22.58;70.68;100827.44;4997993;28;20466;-69
2022/07/25 02:15:44;;;;;;;9.35;4.80;;;;;;;22.51;71.03;100817.97;4998090;28;20026;-69
2022/07/25 02:18:10;;;;;;;6.72;4.40;;;;;;;22.57;70.51;100818.75;4997398;28;20140;-70
2022/07/25 02:20:35;;;;;;;5.90;4.30;;;;;;;22.56;70.56;100814.56;4996433;28;20030;-70
2022/07/25 02:23:01;;;;;;;10.77;4.45;;;;;;;22.44;71.28;100820.09;4995302;28;20057;-69
2022/07/25 02:25:27;;;;;;;10.60;5.03;;;;;;;22.36;71.37;100807.47;4996579;28;20022;-69
2022/07/25 02:27:52;;;;;;;7.50;4.82;;;;;;;22.16;72.19;100802.97;4996317;28;20033;-69
2022/07/25 02:30:17;;;;;;;6.72;4.50;;;;;;;22.21;72.00;100795.13;4996151;28;20022;-70
2022/07/25 02:32:42;;;;;;;8.40;5.00;;;;;;;22.22;71.88;100793.25;4996444;28;20041;-69
2022/07/25 02:35:08;;;;;;;7.30;4.63;;;;;;;22.25;71.65;100785.63;4996189;28;20069;-69
2022/07/25 02:37:33;;;;;;;7.40;4.82;;;;;;;22.39;71.72;100787.72;4996296;28;20389;-69
2022/07/25 02:39:59;;;;;;;8.63;4.72;;;;;;;22.32;71.67;100781.94;4996070;28;20486;-70
2022/07/25 02:42:24;;;;;;;6.60;4.22;;;;;;;22.38;71.70;100778.22;4996160;28;20026;-69
2022/07/25 02:44:50;;;;;;;9.60;4.93;;;;;;;22.32;71.84;100769.56;4996297;28;20026;-69
2022/07/25 02:47:15;;;;;;;6.93;5.03;;;;;;;22.25;71.59;100766.41;4996104;28;20034;-69
2022/07/25 02:49:40;;;;;;;8.82;5.10;;;;;;;22.22;71.84;100770.38;4994758;28;20477;-70
2022/07/25 02:52:05;;;;;;;8.48;4.63;;;;;;;22.28;71.72;100765.88;4996233;28;20045;-68
2022/07/25 02:54:31;;;;;;;7.97;5.07;;;;;;;22.17;71.75;100759.03;4995714;28;20032;-69
2022/07/25 02:56:56;;;;;;;7.65;5.35;;;;;;;22.13;71.99;100757.97;4996085;28;20058;-69
2022/07/25 02:59:21;;;;;;;7.43;5.20;;;;;;;22.16;72.28;100752.97;4995731;28;20022;-69
2022/07/25 03:01:47;;;;;;;8.57;5.25;;;;;;;22.03;72.56;100745.59;4995802;28;20026;-69
2022/07/25 03:04:12;;;;;;;7.03;5.20;;;;;;;22.08;72.27;100749.03;4994633;28;20430;-70
2022/07/25 03:06:37;;;;;;;6.72;4.85;;;;;;;22.03;72.69;100749.00;4995856;28;20121;-69
2022/07/25 03:09:03;;;;;;;8.32;4.90;;;;;;;22.05;72.47;100744.28;4995667;28;20573;-69
2022/07/25 03:11:28;;;;;;;8.43;5.40;;;;;;;22.03;71.95;100746.38;4994160;28;20034;-69
2022/07/25 03:13:54;;;;;;;8.93;5.82;;;;;;;22.01;72.33;100751.16;4995740;28;20029;-70
2022/07/25 03:16:19;;;;;;;11.57;5.85;;;;;;;21.92;72.21;100744.81;4995526;28;20022;-69
2022/07/25 03:18:44;;;;;;;9.18;5.90;;;;;;;21.91;72.45;100739.81;4958091;28;1063893;-69
2022/07/25 03:21:10;;;;;;;9.07;5.75;;;;;;;22.03;71.53;100730.59;4996680;28;20506;-69
2022/07/25 03:23:35;;;;;;;8.88;5.85;;;;;;;21.91;71.90;100726.66;4995305;28;20030;-69
2022/07/25 03:26:00;;;;;;;10.55;5.90;;;;;;;21.85;72.24;100729.28;4996747;28;20540;-68
2022/07/25 03:28:25;;;;;;;9.27;5.85;;;;;;;21.86;72.08;100732.72;4996599;28;20544;-69
2022/07/25 03:30:51;;;;;;;11.55;6.35;;;;;;;21.82;72.13;100729.03;4996431;28;20022;-69
2022/07/25 03:33:17;;;;;;;8.95;6.13;;;;;;;21.74;72.65;100724.28;4996484;28;20378;-69
2022/07/25 03:35:42;;;;;;;9.32;6.00;;;;;;;21.84;72.26;100724.31;4996369;28;20109;-69
2022/07/25 03:38:08;;;;;;;8.77;5.75;;;;;;;21.70;72.47;100718.78;4996482;28;20037;-69
2022/07/25 03:40:33;;;;;;;8.52;5.93;;;;;;;21.66;72.46;100738.75;4996471;28;20026;-69
2022/07/25 03:42:58;;;;;;;8.55;6.18;;;;;;;21.60;72.82;100737.94;4996383;28;20106;-69
2022/07/25 03:45:24;;;;;;;8.00;6.15;;;;;;;21.57;72.80;100730.59;4996255;28;20034;-69
2022/07/25 03:47:49;;;;;;;8.23;5.88;;;;;;;21.53;73.30;100732.16;4996206;28;20026;-69
2022/07/25 03:50:15;;;;;;;8.02;6.28;;;;;;;21.65;72.98;100723.25;4996216;28;20022;-69
2022/07/25 03:52:40;;;;;;;9.70;6.55;;;;;;;21.75;72.72;100715.34;4996164;28;20103;-69
2022/07/25 03:55:07;;;;;;;11.68;6.25;;;;;;;21.62;72.61;100709.56;4994848;28;20034;-69
2022/07/25 03:57:33;;;;;;;8.82;6.50;;;;;;;21.61;72.74;100713.25;4994533;28;20018;-69
2022/07/25 03:59:58;;;;;;;11.18;6.57;;;;;;;21.51;73.07;100723.75;4996033;28;20022;-70
2022/07/25 04:02:23;;;;;;;8.95;6.35;;;;;;;21.53;73.41;100726.13;4995911;28;20030;-69
2022/07/25 04:04:49;;;;;;;8.23;6.43;;;;;;;21.57;72.87;100721.91;4994391;28;20049;-68
2022/07/25 04:07:14;;;;;;;10.35;6.82;;;;;;;21.58;73.01;100728.78;4996053;28;20026;-69
2022/07/25 04:09:39;;;;;;;8.48;6.60;;;;;;;21.62;72.76;100729.81;4995913;28;20366;-69
2022/07/25 04:12:05;;;;;;;9.88;6.15;;;;;;;21.79;72.29;100727.72;4994548;28;20117;-68
2022/07/25 04:14:30;;;;;;;9.18;6.57;;;;;;;21.79;72.09;100725.09;4995631;28;20026;-69
2022/07/25 04:16:55;;;;;;;11.48;6.43;;;;;;;21.87;71.98;100734.31;4995658;28;20030;-69
2022/07/25 04:19:21;;;;;;;12.55;6.43;;;;;;;21.89;72.28;100731.41;4995430;28;20054;-69
2022/07/25 04:21:46;;;;;;;9.43;6.70;;;;;;;21.94;71.59;100739.28;4995684;28;20116;-70
2022/07/25 04:24:11;;;;;;;11.57;6.82;;;;;;;21.95;71.29;100738.22;4994727;28;20034;-70
2022/07/25 04:26:36;;;;;;;11.68;7.13;;;;;;;22.02;71.28;100736.94;4995410;28;20470;-70
2022/07/25 04:29:02;;;;;;;12.73;7.30;;;;;;;22.06;71.08;100739.81;4995630;28;20053;-70
2022/07/25 04:31:28;;;;;;;13.05;6.97;;;;;;;22.04;71.38;100731.41;4994059;28;20030;-69
2022/07/25 04:33:53;;;;;;;11.40;7.47;;;;;;;21.97;71.70;100730.88;4995439;28;20029;-70
2022/07/25 04:36:18;;;;;;;11.18;7.20;;;;;;;21.88;72.12;100735.88;4995491;28;20037;-70
2022/07/25 04:38:44;;;;;;;10.95;7.65;;;;;;;21.80;72.75;100733.75;4994111;28;20062;-70
2022/07/25 04:41:10;;;;;;;11.10;7.30;;;;;;;21.90;72.53;100736.41;4995229;28;20034;-70
2022/07/25 04:43:35;;;;;;;10.27;7.30;;;;;;;21.94;72.44;100737.44;4997190;28;20108;-71
2022/07/25 04:46:01;;;;;;;10.00;7.13;;;;;;;21.84;72.92;100732.19;5000173;28;20065;-68
2022/07/25 04:48:26;;;;;;;14.68;6.63;;;;;;;22.01;73.63;100737.97;4999727;28;20040;-69
2022/07/25 04:50:52;;;;;;;10.85;6.90;;;;;;;22.13;72.92;100736.94;5004712;28;20086;-71
2022/07/25 04:53:17;;;;;;;10.68;6.97;;;;;;;22.20;72.77;100735.63;5000014;28;20080;-71
2022/07/25 04:55:42;;;;;;;13.25;6.82;;;;;;;22.11;73.44;100729.28;4995556;28;20450;-70
2022/07/25 04:58:08;;;;;;;9.65;6.53;;;;;;;22.14;73.94;100726.13;4996024;28;20156;-70
2022/07/25 05:00:33;;;;;;;16.70;7.43;;;;;;;22.25;73.55;100716.41;4996615;28;20037;-69
2022/07/25 05:02:58;;;;;;;12.25;7.22;;;;;;;22.28;73.61;100718.50;4995422;28;20074;-69
2022/07/25 05:05:24;;;;;;;9.75;7.10;;;;;;;22.37;73.90;100721.38;4994780;28;20469;-70
2022/07/25 05:07:54;;;;;;;12.40;6.97;;;;;;;22.45;73.38;100708.47;4994385;28;20028;-70
2022/07/25 05:10:19;;;;;;;13.85;7.60;;;;;;;22.38;73.45;100715.84;4993750;28;20373;-71
2022/07/25 05:12:44;;;;;;;9.98;7.53;;;;;;;22.35;73.07;100720.84;4995677;28;20034;-71
2022/07/25 05:15:11;;;;;;;11.65;7.85;;;;;;;22.45;72.57;100718.22;4995413;28;20023;-74
2022/07/25 05:17:36;;;;;;;11.50;8.20;;;;;;;22.46;72.42;100719.78;4995565;28;20022;-69
2022/07/25 05:20:01;;;;;;;16.50;8.02;;;;;;;22.61;71.66;100727.63;4994158;28;20129;-69
2022/07/25 05:22:27;;;;;;;18.02;8.75;;;;;;;22.79;71.21;100730.72;4995939;28;20069;-72
2022/07/25 05:24:54;;;;;;;12.10;8.27;;;;;;;22.62;71.64;100726.56;4995611;28;20034;-70
2022/07/25 05:27:19;;;;;;;17.25;8.57;;;;;;;22.82;71.04;100725.72;4993959;28;20125;-69
2022/07/25 05:29:44;;;;;;;11.88;8.70;;;;;;;23.03;70.52;100728.28;4994502;28;20062;-70
2022/07/25 05:32:10;;;;;;;10.75;8.18;;;;;;;23.05;70.31;100734.88;4994177;28;20501;-71
2022/07/25 05:34:35;;;;;;;15.65;8.77;;;;;;;23.20;69.56;100736.63;4994305;28;20076;-69
2022/07/25 05:37:00;;;;;;;14.63;9.50;;;;;;;23.20;69.06;100736.63;4994296;28;20121;-69
2022/07/25 05:39:26;;;;;;;12.80;8.80;;;;;;;23.53;68.55;100735.09;4993035;28;20026;-69
2022/07/25 05:41:51;;;;;;;16.33;8.68;;;;;;;23.62;68.45;100738.75;4994198;28;20023;-69
2022/07/25 05:44:16;;;;;;;14.65;8.68;;;;;;;23.74;66.63;100727.09;4994327;28;20124;-69
2022/07/25 05:46:42;;;;;;;12.32;8.15;;;;;;;23.75;66.21;100737.34;4994236;28;20514;-69
2022/07/25 05:49:07;;;;;;;12.85;8.50;;;;;;;24.08;65.80;100738.41;4994289;28;20029;-70
2022/07/25 05:51:32;;;;;;;10.70;7.40;;;;;;;23.97;64.72;100738.78;4992730;28;20022;-69
2022/07/25 05:53:57;;;;;;;13.60;8.25;;;;;;;23.85;65.71;100742.56;4993996;28;20109;-70
2022/07/25 05:56:23;;;;;;;15.70;7.38;;;;;;;24.13;64.23;100734.91;4994026;28;20493;-70
2022/07/25 05:58:48;;;;;;;9.75;6.43;;;;;;;24.33;63.25;100740.00;4994135;28;20065;-70
2022/07/25 06:01:14;;;;;;;15.32;9.55;;;;;;;26.82;55.92;100733.13;4992664;28;20030;-69
2022/07/25 06:03:40;;;;;;;11.70;6.93;;;;;;;25.75;58.72;100746.41;4993894;28;20022;-69
2022/07/25 06:06:07;;;;;;;8.23;5.25;;;;;;;26.49;55.15;100751.75;4992694;28;20377;-69
2022/07/25 06:08:33;;;;;;;8.52;4.30;;;;;;;25.81;55.69;100744.47;4994131;28;20486;-70
2022/07/25 06:10:59;;;;;;;8.02;3.85;;;;;;;25.48;56.32;100741.00;4994025;28;20054;-69
2022/07/25 06:13:26;;;;;;;6.95;3.92;;;;;;;30.29;43.96;100736.03;4992487;28;20018;-70
2022/07/25 06:15:52;;;;;;;7.53;3.30;;;;;;;31.88;39.72;100737.97;4993823;28;20501;-70
2022/07/25 06:18:17;;;;;;;7.43;3.30;;;;;;;26.40;50.07;100727.03;4993819;28;20050;-70
2022/07/25 06:20:43;;;;;;;6.65;3.28;;;;;;;25.90;52.63;100731.38;4993963;28;20033;-69
2022/07/25 06:23:08;;;;;;;3.85;2.88;;;;;;;26.45;51.15;100737.53;4993816;28;20026;-69
2022/07/25 06:25:33;;;;;;;6.57;2.70;;;;;;;26.59;50.72;100734.91;4994090;28;20038;-70
2022/07/25 06:27:59;;;;;;;6.82;3.08;;;;;;;26.03;51.42;100741.97;4993841;28;20091;-68
2022/07/25 06:30:25;;;;;;;6.22;3.15;;;;;;;27.93;47.18;100746.03;4992586;28;20026;-70
2022/07/25 06:32:50;;;;;;;5.82;3.35;;;;;;;28.21;46.72;100750.06;4993654;28;20366;-68
2022/07/25 06:35:16;;;;;;;5.72;2.80;;;;;;;27.32;48.25;100746.38;4992346;28;20041;-70
2022/07/25 06:37:41;;;;;;;6.35;2.50;;;;;;;26.19;49.97;100731.91;4993624;28;20030;-70
2022/07/25 06:40:07;;;;;;;13.32;2.85;;;;;;;28.69;43.39;100729.94;4992277;28;20030;-70
2022/07/25 06:42:40;;;;;;;6.07;2.60;;;;;;;26.23;48.88;100730.25;4993585;28;20533;-69
2022/07/25 06:45:08;;;;;;;8.32;2.55;;;;;;;24.95;52.88;100734.06;4993524;28;20618;-68
2022/07/25 06:47:34;;;;;;;6.65;2.58;;;;;;;24.86;53.83;100738.38;4997067;28;20046;-71
2022/07/25 06:49:59;;;;;;;9.02;2.47;;;;;;;25.27;52.36;100745.81;4997444;28;20469;-73
2022/07/25 06:52:25;;;;;;;5.40;2.70;;;;;;;24.62;54.91;100738.41;4997276;28;20029;-69
2022/07/25 06:54:50;;;;;;;5.80;2.58;;;;;;;24.27;56.17;100735.81;4995938;28;20026;-69
2022/07/25 06:57:15;;;;;;;5.95;2.60;;;;;;;23.83;57.46;100742.03;4996065;28;20041;-69
2022/07/25 06:59:41;;;;;;;4.00;2.38;;;;;;;23.66;58.56;100746.88;4997255;28;20018;-69
2022/07/25 07:02:06;;;;;;;5.57;2.63;;;;;;;23.52;59.13;100746.72;4996990;28;20079;-69
2022/07/25 07:04:32;;;;;;;9.82;2.65;;;;;;;23.60;59.28;100753.28;4996745;28;20026;-69
2022/07/25 07:06:57;;;;;;;5.85;2.50;;;;;;;23.37;60.66;100755.53;4995645;28;20037;-69
2022/07/25 07:09:22;;;;;;;6.03;2.55;;;;;;;23.54;60.45;100755.16;4995275;28;20041;-69
2022/07/25 07:11:47;;;;;;;7.65;2.33;;;;;;;23.45;61.04;100755.97;4996817;28;20462;-69
2022/07/25 07:14:13;;;;;;;6.18;2.33;;;;;;;23.21;61.47;100746.09;4996933;28;20023;-68
2022/07/25 07:16:40;;;;;;;6.68;2.58;;;;;;;23.27;61.56;100750.28;4995535;28;20105;-69
2022/07/25 07:19:05;;;;;;;7.57;2.20;;;;;;;23.05;62.30;100748.03;4996562;28;20051;-69
2022/07/25 07:21:30;;;;;;;4.15;2.08;;;;;;;23.01;62.89;100752.25;4995552;28;20022;-69
2022/07/25 07:23:56;;;;;;;6.78;2.20;;;;;;;23.09;64.46;100748.28;4995050;28;20026;-70
2022/07/25 07:26:22;;;;;;;5.93;2.10;;;;;;;23.04;66.92;100745.66;4994894;28;20045;-70
2022/07/25 07:28:47;;;;;;;5.88;2.28;;;;;;;23.02;68.45;100747.78;4996636;28;20026;-70
2022/07/25 07:31:14;;;;;;;3.60;2.10;;;;;;;23.04;67.58;100748.31;4997507;28;20530;-69
2022/07/25 07:33:39;;;;;;;4.88;2.30;;;;;;;23.29;67.03;100747.41;4995080;28;20037;-70
2022/07/25 07:36:05;;;;;;;4.90;1.80;;;;;;;23.54;66.35;100754.38;4996671;28;20474;-70
2022/07/25 07:38:30;;;;;;;5.72;1.83;;;;;;;23.60;65.98;100756.69;4995327;28;20036;-70
2022/07/25 07:40:55;;;;;;;6.00;2.00;;;;;;;23.57;65.50;100748.53;4994944;28;20022;-70
2022/07/25 07:43:21;;;;;;;4.13;1.77;;;;;;;23.80;64.90;100752.38;4994749;28;20023;-70
2022/07/25 07:45:46;;;;;;;6.45;1.90;;;;;;;24.01;64.77;100751.13;4995171;28;20026;-70
2022/07/25 07:48:11;;;;;;;9.95;1.88;;;;;;;24.02;64.87;100749.25;4996261;28;20474;-69
2022/07/25 07:50:37;;;;;;;3.17;1.80;;;;;;;24.51;63.42;100732.44;4996368;28;20522;-70
2022/07/25 07:53:03;;;;;;;3.58;1.40;;;;;;;24.37;63.39;100742.88;4996005;28;20104;-70
2022/07/25 07:58:17;;;;;;;5.22;1.52;;;;;;;24.29;63.68;100748.75;4995008;28;20524;-70
2022/07/25 08:00:45;;;;;;;6.68;1.77;;;;;;;24.59;62.44;100747.66;4995841;28;20097;-70
2022/07/25 08:03:10;;;;;;;4.15;1.40;;;;;;;24.85;62.15;100747.38;4995807;28;20030;-69
2022/07/25 08:05:42;;;;;;;5.57;1.48;;;;;;;25.27;61.74;100762.47;4994999;28;20038;-69
2022/07/25 08:08:08;;;;;;;4.25;1.80;;;;;;;25.62;60.70;100749.78;4999622;28;20084;-70
2022/07/25 08:10:36;;;;;;;5.20;1.45;;;;;;;25.43;60.98;100761.19;4998675;28;20446;-70
2022/07/25 08:13:11;;;;;;;6.07;1.70;;;;;;;25.00;61.85;100741.88;5000289;28;20029;-72
2022/07/25 08:15:37;;;;;;;7.38;1.38;;;;;;;24.23;63.31;100755.94;4999567;28;20053;-72
2022/07/25 08:18:03;;;;;;;5.13;1.40;;;;;;;24.04;65.69;100773.53;4999306;28;20062;-75
2022/07/25 08:20:28;;;;;;;8.13;1.40;;;;;;;24.52;64.16;100757.81;5000194;28;20057;-74
2022/07/25 08:22:54;;;;;;;6.53;1.52;;;;;;;24.62;63.91;100756.91;5000193;28;20035;-70
2022/07/25 08:25:20;;;;;;;5.43;1.60;;;;;;;25.99;59.65;100748.94;4999437;28;20022;-72
2022/07/25 08:27:46;;;;;;;4.93;1.60;;;;;;;26.19;58.94;100749.69;4998438;28;20386;-74
2022/07/25 08:30:13;;;;;;;8.13;1.65;;;;;;;25.76;60.59;100744.53;4998867;28;20030;-70
2022/07/25 08:32:47;;;;;;;10.65;1.88;;;;;;;25.59;60.57;100748.50;4997790;28;20026;-69
2022/07/25 08:35:12;;;;;;;6.80;1.65;;;;;;;24.62;62.25;100739.19;4997643;28;20022;-70
2022/07/25 08:37:38;;;;;;;6.28;1.90;;;;;;;25.16;61.41;100758.38;4996317;28;20367;-70
2022/07/25 08:40:03;;;;;;;6.75;1.67;;;;;;;25.35;60.07;100750.47;4994168;28;20080;-70
2022/07/25 08:42:32;;;;;;;7.30;1.75;;;;;;;25.50;60.01;100755.53;4994733;28;20026;-69
2022/07/25 08:44:58;;;;;;;5.82;1.58;;;;;;;24.92;61.73;100753.13;4995179;28;20022;-70
2022/07/25 08:47:25;;;;;;;7.20;1.77;;;;;;;24.69;63.18;100747.56;4994916;28;20101;-69
2022/07/25 08:49:52;;;;;;;6.03;1.70;;;;;;;24.82;63.65;100750.59;4993710;28;20493;-70
2022/07/25 08:52:18;;;;;;;10.65;1.83;;;;;;;25.05;62.58;100754.28;4993579;28;20053;-70
2022/07/25 08:54:46;;;;;;;12.10;1.85;;;;;;;24.55;64.25;100765.16;4994760;28;20030;-71
2022/07/25 08:57:11;;;;;;;6.18;1.80;;;;;;;24.52;64.11;100773.66;4994998;28;20026;-70
2022/07/25 08:59:36;;;;;;;9.70;2.22;;;;;;;24.10;65.83;100767.94;4994855;28;20088;-71
2022/07/25 09:02:05;;;;;;;10.23;1.90;;;;;;;24.37;64.99;100768.47;4993260;28;20398;-70
2022/07/25 09:04:32;;;;;;;11.98;2.10;;;;;;;24.46;68.93;100766.84;4993456;28;20034;-70
2022/07/25 09:06:57;;;;;;;7.38;1.90;;;;;;;24.59;67.16;100765.38;4994785;28;20390;-69
2022/07/25 09:09:32;;;;;;;11.65;1.98;;;;;;;24.98;68.05;100765.97;4994325;28;20030;-70
2022/07/25 09:11:57;;;;;;;7.60;1.90;;;;;;;25.04;67.61;100768.56;4993390;28;20092;-70
2022/07/25 09:14:23;;;;;;;5.10;1.73;;;;;;;25.55;65.91;100762.59;4993323;28;20027;-70
2022/07/25 09:16:49;;;;;;;12.32;1.83;;;;;;;25.69;63.99;100766.06;4994500;28;20022;-70
2022/07/25 09:19:20;;;;;;;6.75;1.60;;;;;;;26.01;62.44;100765.34;4994357;28;20518;-70
2022/07/25 09:22:07;;;;;;;5.30;2.00;;;;;;;26.49;60.90;100772.16;4993363;28;20022;-71
2022/07/25 09:24:34;;;;;;;10.15;2.13;;;;;;;26.08;61.24;100775.53;4994580;28;20034;-69
2022/07/25 09:27:07;;;;;;;7.78;1.90;;;;;;;26.36;60.31;100784.34;4994516;28;20034;-68
2022/07/25 09:29:33;;;;;;;6.80;1.77;;;;;;;25.93;60.12;100771.28;4994352;28;20033;-69
2022/07/25 09:32:00;;;;;;;8.02;2.10;;;;;;;26.53;57.83;100773.19;4994269;28;20080;-68
2022/07/25 09:34:40;;;;;;;6.72;2.10;;;;;;;26.64;56.13;100777.19;4994154;28;20018;-69
2022/07/25 09:37:09;;;;;;;12.35;2.20;;;;;;;27.06;55.13;100777.16;4991607;28;20026;-70
2022/07/25 09:39:35;;;;;;;7.72;2.33;;;;;;;26.29;57.06;100783.91;4993118;28;20022;-70
2022/07/25 09:42:01;;;;;;;7.97;2.00;;;;;;;25.96;56.85;100789.25;4993674;28;20030;-69
2022/07/25 09:44:29;;;;;;;11.80;2.30;;;;;;;27.01;54.80;100786.00;4993920;28;20014;-69
2022/07/25 09:47:08;;;;;;;11.05;2.40;;;;;;;26.78;55.32;100790.44;4992596;28;20022;-69
2022/07/25 09:49:42;;;;;;;7.57;2.08;;;;;;;26.64;56.35;100779.06;4994264;28;20382;-69
2022/07/25 09:52:11;;;;;;;9.13;2.15;;;;;;;26.34;56.73;100783.81;4992999;28;20019;-70
2022/07/25 09:54:38;;;;;;;11.00;2.33;;;;;;;25.50;58.01;100786.50;4993892;28;20054;-70
2022/07/25 09:57:04;;;;;;;8.32;1.70;;;;;;;25.52;57.85;100790.44;4993855;28;20034;-70
2022/07/25 09:59:29;;;;;;;9.27;2.10;;;;;;;24.84;59.99;100799.44;4992794;28;20026;-69
2022/07/25 10:02:14;;;;;;;9.43;2.25;;;;;;;24.17;62.24;100811.69;4994323;28;20133;-69
2022/07/25 10:04:55;;;;;;;6.93;2.10;;;;;;;24.41;61.87;100796.69;4993945;28;20058;-70
2022/07/25 10:07:22;;;;;;;11.50;2.03;;;;;;;24.93;60.66;100810.19;4993874;28;20113;-68
2022/07/25 10:09:50;;;;;;;5.25;1.92;;;;;;;25.20;59.73;100809.63;4994139;28;20026;-68
2022/07/25 10:12:21;;;;;;;6.07;2.10;;;;;;;25.28;58.76;100816.13;4993843;28;20100;-69
2022/07/25 10:15:21;;;;;;;6.13;1.90;;;;;;;25.71;59.22;100824.78;4994081;28;20054;-69
2022/07/25 10:17:49;;;;;;;12.07;2.30;;;;;;;25.11;58.56;100833.22;4953194;29;20036;-69
2022/07/25 10:20:14;;;;;;;8.00;1.80;;;;;;;25.37;58.28;100838.22;4985837;28;20517;-69
2022/07/25 10:22:42;;;;;;;6.43;1.67;;;;;;;25.08;59.25;100831.16;4996705;28;20019;-69
2022/07/25 10:25:13;;;;;;;7.03;1.90;;;;;;;25.63;57.37;100839.44;4997978;28;20053;-69
2022/07/25 10:28:07;;;;;;;11.13;1.70;;;;;;;25.71;57.17;100832.72;4997465;28;20026;-69
2022/07/25 10:30:38;;;;;;;8.05;1.88;;;;;;;26.06;56.81;100823.47;4993751;28;20039;-70
2022/07/25 10:33:10;;;;;;;7.63;1.83;;;;;;;25.80;57.33;100840.81;4997876;28;20036;-68
2022/07/25 10:35:35;;;;;;;10.40;2.40;;;;;;;25.81;56.68;100851.13;4996597;28;20033;-69
2022/07/25 10:38:03;;;;;;;8.00;1.90;;;;;;;25.75;57.13;100844.34;4996109;28;20362;-69
2022/07/25 10:40:41;;;;;;;8.57;2.10;;;;;;;25.34;54.73;100838.81;4997451;28;20049;-70
2022/07/25 10:43:08;;;;;;;8.80;1.77;;;;;;;25.87;53.43;100846.56;4996109;28;20380;-70
2022/07/25 10:45:40;;;;;;;5.97;1.70;;;;;;;25.96;51.27;100849.34;4997514;28;20037;-69
2022/07/25 10:48:07;;;;;;;8.13;1.80;;;;;;;26.42;49.80;100843.31;4997284;28;20034;-69
2022/07/25 10:50:32;;;;;;;5.40;1.92;;;;;;;25.96;51.60;100847.50;4997231;28;20029;-69
2022/07/25 10:52:59;;;;;;;8.48;2.13;;;;;;;26.43;50.82;100850.16;4996033;28;20097;-69
2022/07/25 10:55:27;;;;;;;7.38;2.28;;;;;;;26.33;51.30;100843.97;4997381;28;20073;-69
2022/07/25 10:58:05;;;;;;;9.88;2.28;;;;;;;26.26;51.68;100850.72;4995786;28;20027;-69
2022/07/25 11:00:32;;;;;;;9.73;1.83;;;;;;;25.85;50.63;100862.72;4995881;28;20030;-69
2022/07/25 11:02:58;;;;;;;18.17;2.13;;;;;;;25.57;51.71;100864.41;4996887;28;20058;-68
2022/07/25 11:05:24;;;;;;;8.82;2.33;;;;;;;25.37;52.58;100862.81;4996893;28;20062;-69
2022/07/25 11:07:55;;;;;;;8.45;2.28;;;;;;;24.98;52.91;100855.84;4995829;28;20029;-69
2022/07/25 11:10:26;;;;;;;7.45;2.42;;;;;;;24.46;55.09;100861.94;4997201;28;20378;-70
2022/07/25 11:12:53;;;;;;;7.35;2.45;;;;;;;24.60;55.04;100865.50;4996877;28;20027;-69
2022/07/25 11:15:25;;;;;;;9.35;2.35;;;;;;;24.53;55.81;100870.31;4996876;28;20026;-69
2022/07/25 11:17:54;;;;;;;11.57;2.35;;;;;;;24.42;56.33;100872.22;4995496;28;20037;-69
2022/07/25 11:20:19;;;;;;;6.72;2.00;;;;;;;24.52;56.15;100872.16;4995225;28;20050;-70
2022/07/25 11:22:54;;;;;;;10.45;2.53;;;;;;;24.71;56.05;100872.25;4995170;28;20485;-69
2022/07/25 11:25:24;;;;;;;8.85;2.53;;;;;;;24.41;56.63;100868.00;4995469;28;20054;-69